sensor_id;sensor_type;location;lat;lon;timestamp;pressure;altitude;pressure_sealevel;temperature;humidity
71465;BME280;59274;49.874;9.154;2022-09-03T00:00:26;100000.75;;;16.55;49.34
71465;BME280;59274;49.874;9.154;2022-09-03T00:03:11;99995.25;;;16.55;50.00
71465;BME280;59274;49.874;9.154;2022-09-03T00:05:50;99994.91;;;16.53;49.26
71465;BME280;59274;49.874;9.154;2022-09-03T00:08:43;99997.66;;;16.53;50.17
71465;BME280;59274;49.874;9.154;2022-09-03T00:16:58;100011.09;;;16.44;51.26
71465;BME280;59274;49.874;9.154;2022-09-03T00:19:34;100004.91;;;16.40;52.11
71465;BME280;59274;49.874;9.154;2022-09-03T00:22:34;99998.53;;;16.47;52.25
71465;BME280;59274;49.874;9.154;2022-09-03T00:25:03;99992.66;;;16.48;52.15
71465;BME280;59274;49.874;9.154;2022-09-03T00:27:32;99998.47;;;16.50;52.45
71465;BME280;59274;49.874;9.154;2022-09-03T00:30:19;99985.41;;;16.58;51.29
71465;BME280;59274;49.874;9.154;2022-09-03T00:33:06;99987.16;;;16.71;49.80
71465;BME280;59274;49.874;9.154;2022-09-03T00:35:48;99990.94;;;16.77;49.64
71465;BME280;59274;49.874;9.154;2022-09-03T00:38:15;99992.00;;;16.64;50.11
71465;BME280;59274;49.874;9.154;2022-09-03T00:48:35;99986.19;;;16.58;50.09
71465;BME280;59274;49.874;9.154;2022-09-03T01:02:25;99983.09;;;16.56;50.15
71465;BME280;59274;49.874;9.154;2022-09-03T01:08:00;99986.31;;;16.51;49.89
71465;BME280;59274;49.874;9.154;2022-09-03T01:10:55;99981.25;;;16.50;50.20
71465;BME280;59274;49.874;9.154;2022-09-03T01:25:14;99980.69;;;16.62;50.10
71465;BME280;59274;49.874;9.154;2022-09-03T01:30:41;99984.91;;;16.66;50.26
71465;BME280;59274;49.874;9.154;2022-09-03T01:50:53;99981.25;;;16.73;51.16
71465;BME280;59274;49.874;9.154;2022-09-03T01:59:08;99973.34;;;16.55;51.53
71465;BME280;59274;49.874;9.154;2022-09-03T02:01:45;99969.88;;;16.51;51.14
71465;BME280;59274;49.874;9.154;2022-09-03T02:04:19;99966.34;;;16.51;50.90
71465;BME280;59274;49.874;9.154;2022-09-03T02:06:49;99965.66;;;16.47;51.18
71465;BME280;59274;49.874;9.154;2022-09-03T02:09:15;99970.28;;;16.50;51.23
71465;BME280;59274;49.874;9.154;2022-09-03T02:11:43;99975.75;;;16.50;51.51
71465;BME280;59274;49.874;9.154;2022-09-03T02:14:11;99974.56;;;16.51;51.83
71465;BME280;59274;49.874;9.154;2022-09-03T02:16:38;99977.31;;;16.51;51.21
71465;BME280;59274;49.874;9.154;2022-09-03T02:19:10;99974.56;;;16.51;52.01
71465;BME280;59274;49.874;9.154;2022-09-03T02:21:39;99974.97;;;16.49;51.82
71465;BME280;59274;49.874;9.154;2022-09-03T02:24:08;99974.56;;;16.51;51.80
71465;BME280;59274;49.874;9.154;2022-09-03T02:26:34;99979.22;;;16.54;52.15
71465;BME280;59274;49.874;9.154;2022-09-03T02:29:00;99978.38;;;16.57;52.00
71465;BME280;59274;49.874;9.154;2022-09-03T02:31:27;99980.69;;;16.58;52.01
71465;BME280;59274;49.874;9.154;2022-09-03T02:33:55;99969.72;;;16.58;51.97
71465;BME280;59274;49.874;9.154;2022-09-03T02:36:26;99975.63;;;16.60;51.64
71465;BME280;59274;49.874;9.154;2022-09-03T02:38:52;99980.97;;;16.67;51.78
71465;BME280;59274;49.874;9.154;2022-09-03T02:41:18;99982.06;;;16.70;52.06
71465;BME280;59274;49.874;9.154;2022-09-03T02:46:40;99980.47;;;16.72;51.56
71465;BME280;59274;49.874;9.154;2022-09-03T02:49:08;99972.66;;;16.71;51.51
71465;BME280;59274;49.874;9.154;2022-09-03T02:51:39;99978.16;;;16.71;51.75
71465;BME280;59274;49.874;9.154;2022-09-03T02:54:06;99971.88;;;16.70;52.28
71465;BME280;59274;49.874;9.154;2022-09-03T02:56:32;99971.41;;;16.75;52.26
71465;BME280;59274;49.874;9.154;2022-09-03T02:58:58;99974.16;;;16.75;52.37
71465;BME280;59274;49.874;9.154;2022-09-03T03:01:25;99972.53;;;16.78;52.35
71465;BME280;59274;49.874;9.154;2022-09-03T03:03:51;99969.31;;;16.83;52.32
71465;BME280;59274;49.874;9.154;2022-09-03T03:06:17;99976.00;;;16.82;51.60
71465;BME280;59274;49.874;9.154;2022-09-03T03:08:48;99977.56;;;16.83;51.63
71465;BME280;59274;49.874;9.154;2022-09-03T03:11:14;99981.41;;;16.86;51.49
71465;BME280;59274;49.874;9.154;2022-09-03T03:13:43;99978.25;;;16.87;51.24
71465;BME280;59274;49.874;9.154;2022-09-03T03:16:11;99981.41;;;16.86;51.31
71465;BME280;59274;49.874;9.154;2022-09-03T03:18:36;99974.38;;;16.84;51.50
71465;BME280;59274;49.874;9.154;2022-09-03T03:21:08;99981.00;;;16.87;51.63
71465;BME280;59274;49.874;9.154;2022-09-03T03:23:34;99985.19;;;16.92;51.74
71465;BME280;59274;49.874;9.154;2022-09-03T03:26:02;99981.00;;;16.87;51.64
71465;BME280;59274;49.874;9.154;2022-09-03T03:28:28;99976.34;;;16.84;53.64
71465;BME280;59274;49.874;9.154;2022-09-03T03:30:56;99970.28;;;16.73;54.43
71465;BME280;59274;49.874;9.154;2022-09-03T03:33:22;99973.09;;;16.69;54.09
71465;BME280;59274;49.874;9.154;2022-09-03T03:35:47;99985.69;;;16.67;54.53
71465;BME280;59274;49.874;9.154;2022-09-03T03:38:13;99980.78;;;16.55;57.56
71465;BME280;59274;49.874;9.154;2022-09-03T03:40:39;99973.38;;;16.52;58.62
71465;BME280;59274;49.874;9.154;2022-09-03T03:43:04;99981.19;;;16.30;61.71
71465;BME280;59274;49.874;9.154;2022-09-03T03:45:30;99972.53;;;16.08;65.93
71465;BME280;59274;49.874;9.154;2022-09-03T03:47:57;99976.38;;;15.87;69.28
71465;BME280;59274;49.874;9.154;2022-09-03T03:50:23;99978.66;;;15.65;69.63
71465;BME280;59274;49.874;9.154;2022-09-03T03:52:49;99980.00;;;15.54;73.98
71465;BME280;59274;49.874;9.154;2022-09-03T03:55:15;99979.22;;;15.53;71.20
71465;BME280;59274;49.874;9.154;2022-09-03T03:57:41;99975.78;;;15.46;68.13
71465;BME280;59274;49.874;9.154;2022-09-03T04:00:06;99980.16;;;15.40;72.32
71465;BME280;59274;49.874;9.154;2022-09-03T04:02:33;99983.88;;;15.22;71.52
71465;BME280;59274;49.874;9.154;2022-09-03T04:04:58;99980.81;;;15.17;75.46
71465;BME280;59274;49.874;9.154;2022-09-03T04:07:24;99985.59;;;15.13;75.01
71465;BME280;59274;49.874;9.154;2022-09-03T04:09:49;99979.72;;;15.11;73.59
71465;BME280;59274;49.874;9.154;2022-09-03T04:12:15;99979.75;;;15.07;71.34
71465;BME280;59274;49.874;9.154;2022-09-03T04:14:41;99975.06;;;15.08;70.32
71465;BME280;59274;49.874;9.154;2022-09-03T04:17:07;99975.81;;;15.12;69.26
71465;BME280;59274;49.874;9.154;2022-09-03T04:19:32;99974.75;;;15.02;72.63
71465;BME280;59274;49.874;9.154;2022-09-03T04:21:58;99971.22;;;15.02;69.49
71465;BME280;59274;49.874;9.154;2022-09-03T04:24:23;99967.00;;;14.97;69.33
71465;BME280;59274;49.874;9.154;2022-09-03T04:26:49;99968.41;;;15.09;67.80
71465;BME280;59274;49.874;9.154;2022-09-03T04:29:14;99964.59;;;15.03;68.93
71465;BME280;59274;49.874;9.154;2022-09-03T04:31:40;99973.09;;;15.08;68.53
71465;BME280;59274;49.874;9.154;2022-09-03T04:34:26;99975.97;;;14.98;71.72
71465;BME280;59274;49.874;9.154;2022-09-03T04:36:51;99967.09;;;14.86;72.18
71465;BME280;59274;49.874;9.154;2022-09-03T04:39:17;99971.06;;;14.82;71.55
71465;BME280;59274;49.874;9.154;2022-09-03T04:41:42;99973.06;;;14.78;72.33
71465;BME280;59274;49.874;9.154;2022-09-03T04:44:08;99980.53;;;14.74;71.93
71465;BME280;59274;49.874;9.154;2022-09-03T04:46:34;99986.41;;;14.72;72.55
71465;BME280;59274;49.874;9.154;2022-09-03T04:48:59;99987.56;;;14.71;70.10
71465;BME280;59274;49.874;9.154;2022-09-03T04:51:27;99983.63;;;14.76;70.00
71465;BME280;59274;49.874;9.154;2022-09-03T04:53:57;99984.38;;;14.80;70.55
71465;BME280;59274;49.874;9.154;2022-09-03T04:56:28;99984.38;;;14.80;71.99
71465;BME280;59274;49.874;9.154;2022-09-03T04:58:56;99985.53;;;14.82;71.57
71465;BME280;59274;49.874;9.154;2022-09-03T05:01:24;99989.75;;;14.87;72.12
71465;BME280;59274;49.874;9.154;2022-09-03T05:03:50;99991.25;;;14.95;71.01
71465;BME280;59274;49.874;9.154;2022-09-03T05:06:18;99989.19;;;15.03;71.59
71465;BME280;59274;49.874;9.154;2022-09-03T05:08:48;99993.44;;;15.07;70.75
71465;BME280;59274;49.874;9.154;2022-09-03T05:11:13;99993.34;;;15.14;70.64
71465;BME280;59274;49.874;9.154;2022-09-03T05:13:39;99990.88;;;15.27;67.55
71465;BME280;59274;49.874;9.154;2022-09-03T05:16:07;99987.63;;;15.36;65.66
71465;BME280;59274;49.874;9.154;2022-09-03T05:18:33;99985.22;;;15.41;65.14
71465;BME280;59274;49.874;9.154;2022-09-03T05:21:05;99991.78;;;15.47;65.64
71465;BME280;59274;49.874;9.154;2022-09-03T05:23:34;99998.75;;;15.55;63.87
71465;BME280;59274;49.874;9.154;2022-09-03T05:26:03;99997.13;;;15.58;64.02
71465;BME280;59274;49.874;9.154;2022-09-03T05:28:30;99996.25;;;15.64;64.44
71465;BME280;59274;49.874;9.154;2022-09-03T05:31:00;100002.91;;;15.67;66.74
71465;BME280;59274;49.874;9.154;2022-09-03T05:33:26;99995.28;;;15.78;63.79
71465;BME280;59274;49.874;9.154;2022-09-03T05:35:54;99995.63;;;15.84;63.76
71465;BME280;59274;49.874;9.154;2022-09-03T05:38:22;99993.97;;;15.90;62.25
71465;BME280;59274;49.874;9.154;2022-09-03T05:40:48;99993.50;;;15.95;61.56
71465;BME280;59274;49.874;9.154;2022-09-03T05:43:14;99999.47;;;16.13;60.46
71465;BME280;59274;49.874;9.154;2022-09-03T05:45:41;99991.31;;;16.10;59.55
71465;BME280;59274;49.874;9.154;2022-09-03T05:48:07;99996.00;;;16.09;58.50
71465;BME280;59274;49.874;9.154;2022-09-03T05:50:32;100003.81;;;16.11;57.61
71465;BME280;59274;49.874;9.154;2022-09-03T05:52:58;100006.94;;;16.13;58.20
71465;BME280;59274;49.874;9.154;2022-09-03T05:55:24;100016.75;;;16.10;57.66
71465;BME280;59274;49.874;9.154;2022-09-03T05:57:53;100019.19;;;16.04;58.59
71465;BME280;59274;49.874;9.154;2022-09-03T06:00:19;100012.56;;;16.02;57.98
71465;BME280;59274;49.874;9.154;2022-09-03T06:02:53;100009.81;;;16.02;57.66
71465;BME280;59274;49.874;9.154;2022-09-03T06:05:19;100019.50;;;16.10;58.66
71465;BME280;59274;49.874;9.154;2022-09-03T06:07:45;100014.78;;;16.11;58.23
71465;BME280;59274;49.874;9.154;2022-09-03T06:10:14;100022.50;;;16.19;57.90
71465;BME280;59274;49.874;9.154;2022-09-03T06:12:41;100017.34;;;16.21;57.02
71465;BME280;59274;49.874;9.154;2022-09-03T06:15:09;100030.03;;;16.35;56.11
71465;BME280;59274;49.874;9.154;2022-09-03T06:17:37;100026.13;;;16.36;56.15
71465;BME280;59274;49.874;9.154;2022-09-03T06:20:02;100020.63;;;16.36;56.35
71465;BME280;59274;49.874;9.154;2022-09-03T06:22:28;100025.00;;;16.33;56.94
71465;BME280;59274;49.874;9.154;2022-09-03T06:24:55;100025.72;;;16.37;56.66
71465;BME280;59274;49.874;9.154;2022-09-03T06:27:21;100029.16;;;16.41;56.35
71465;BME280;59274;49.874;9.154;2022-09-03T06:29:47;100033.16;;;16.37;56.02
71465;BME280;59274;49.874;9.154;2022-09-03T06:32:12;100029.59;;;16.40;56.27
71465;BME280;59274;49.874;9.154;2022-09-03T06:34:38;100028.53;;;16.34;56.71
71465;BME280;59274;49.874;9.154;2022-09-03T06:37:04;100035.97;;;16.33;57.70
71465;BME280;59274;49.874;9.154;2022-09-03T06:39:29;100030.53;;;16.30;58.69
71465;BME280;59274;49.874;9.154;2022-09-03T06:41:55;100039.25;;;16.21;58.20
71465;BME280;59274;49.874;9.154;2022-09-03T06:44:21;100030.72;;;16.19;59.86
71465;BME280;59274;49.874;9.154;2022-09-03T06:46:46;100037.72;;;16.20;58.84
71465;BME280;59274;49.874;9.154;2022-09-03T06:49:13;100043.53;;;16.26;58.07
71465;BME280;59274;49.874;9.154;2022-09-03T06:51:39;100045.91;;;16.24;59.19
71465;BME280;59274;49.874;9.154;2022-09-03T06:54:09;100039.88;;;16.32;58.94
71465;BME280;59274;49.874;9.154;2022-09-03T06:56:37;100041.00;;;16.35;59.24
71465;BME280;59274;49.874;9.154;2022-09-03T06:59:06;100042.53;;;16.39;59.57
71465;BME280;59274;49.874;9.154;2022-09-03T07:01:33;100034.84;;;16.54;58.62
71465;BME280;59274;49.874;9.154;2022-09-03T07:04:01;100039.47;;;16.61;60.12
71465;BME280;59274;49.874;9.154;2022-09-03T07:06:29;100049.13;;;16.69;57.59
71465;BME280;59274;49.874;9.154;2022-09-03T07:08:55;100041.34;;;16.87;58.17
71465;BME280;59274;49.874;9.154;2022-09-03T07:11:23;100045.44;;;16.99;60.77
71465;BME280;59274;49.874;9.154;2022-09-03T07:13:51;100040.75;;;17.19;57.74
71465;BME280;59274;49.874;9.154;2022-09-03T07:16:26;100039.97;;;17.38;56.16
71465;BME280;59274;49.874;9.154;2022-09-03T07:18:53;100041.94;;;17.57;56.31
71465;BME280;59274;49.874;9.154;2022-09-03T07:21:26;100037.03;;;17.69;55.09
71465;BME280;59274;49.874;9.154;2022-09-03T07:23:53;100041.66;;;17.72;55.74
71465;BME280;59274;49.874;9.154;2022-09-03T07:26:22;100036.50;;;17.74;53.39
71465;BME280;59274;49.874;9.154;2022-09-03T07:28:48;100053.19;;;17.83;53.96
71465;BME280;59274;49.874;9.154;2022-09-03T07:31:17;100052.59;;;17.75;52.69
71465;BME280;59274;49.874;9.154;2022-09-03T07:33:45;100051.28;;;17.80;52.72
71465;BME280;59274;49.874;9.154;2022-09-03T07:36:13;100056.47;;;17.94;52.28
71465;BME280;59274;49.874;9.154;2022-09-03T07:38:40;100062.00;;;18.10;52.62
71465;BME280;59274;49.874;9.154;2022-09-03T07:41:07;100060.91;;;18.24;52.25
71465;BME280;59274;49.874;9.154;2022-09-03T07:43:41;100053.53;;;18.37;52.41
71465;BME280;59274;49.874;9.154;2022-09-03T07:46:18;100060.06;;;18.43;51.46
71465;BME280;59274;49.874;9.154;2022-09-03T07:48:47;100061.94;;;18.46;51.25
71465;BME280;59274;49.874;9.154;2022-09-03T07:51:13;100053.38;;;18.60;51.10
71465;BME280;59274;49.874;9.154;2022-09-03T07:53:39;100060.59;;;18.54;51.92
71465;BME280;59274;49.874;9.154;2022-09-03T07:56:06;100066.84;;;18.55;51.61
71465;BME280;59274;49.874;9.154;2022-09-03T07:58:34;100068.41;;;18.72;50.08
71465;BME280;59274;49.874;9.154;2022-09-03T08:01:09;100058.34;;;18.65;50.96
71465;BME280;59274;49.874;9.154;2022-09-03T08:03:36;100061.88;;;18.82;49.97
71465;BME280;59274;49.874;9.154;2022-09-03T08:06:06;100067.88;;;18.93;50.39
71465;BME280;59274;49.874;9.154;2022-09-03T08:08:33;100061.97;;;19.07;50.12
71465;BME280;59274;49.874;9.154;2022-09-03T08:11:12;100070.97;;;19.24;49.36
71465;BME280;59274;49.874;9.154;2022-09-03T08:13:43;100062.72;;;19.24;49.77
71465;BME280;59274;49.874;9.154;2022-09-03T08:16:10;100061.25;;;19.20;49.94
71465;BME280;59274;49.874;9.154;2022-09-03T08:18:37;100070.84;;;18.99;49.80
71465;BME280;59274;49.874;9.154;2022-09-03T08:21:10;100077.84;;;19.03;50.28
71465;BME280;59274;49.874;9.154;2022-09-03T08:23:40;100077.16;;;18.83;50.16
71465;BME280;59274;49.874;9.154;2022-09-03T08:26:06;100074.41;;;18.83;51.86
71465;BME280;59274;49.874;9.154;2022-09-03T08:28:33;100083.72;;;18.89;52.41
71465;BME280;59274;49.874;9.154;2022-09-03T08:31:07;100079.66;;;18.94;52.76
71465;BME280;59274;49.874;9.154;2022-09-03T08:33:39;100078.19;;;18.89;54.01
71465;BME280;59274;49.874;9.154;2022-09-03T08:36:12;100077.50;;;18.85;54.36
71465;BME280;59274;49.874;9.154;2022-09-03T08:38:38;100080.78;;;18.64;55.88
71465;BME280;59274;49.874;9.154;2022-09-03T08:46:25;100080.69;;;17.99;63.14
71465;BME280;59274;49.874;9.154;2022-09-03T08:48:57;100089.75;;;17.60;65.61
71465;BME280;59274;49.874;9.154;2022-09-03T08:51:24;100087.97;;;17.50;65.70
71465;BME280;59274;49.874;9.154;2022-09-03T08:53:53;100082.34;;;17.37;66.97
71465;BME280;59274;49.874;9.154;2022-09-03T08:56:26;100083.41;;;17.23;68.10
71465;BME280;59274;49.874;9.154;2022-09-03T08:58:53;100082.91;;;17.29;66.84
71465;BME280;59274;49.874;9.154;2022-09-03T09:01:51;100082.75;;;17.16;69.27
71465;BME280;59274;49.874;9.154;2022-09-03T09:07:17;100083.31;;;17.27;71.18
71465;BME280;59274;49.874;9.154;2022-09-03T09:09:49;100081.47;;;17.20;70.36
71465;BME280;59274;49.874;9.154;2022-09-03T09:12:30;100074.75;;;17.25;70.11
71465;BME280;59274;49.874;9.154;2022-09-03T09:23:39;100071.50;;;17.70;72.15
71465;BME280;59274;49.874;9.154;2022-09-03T09:26:14;100066.06;;;17.86;72.48
71465;BME280;59274;49.874;9.154;2022-09-03T09:28:41;100074.94;;;17.93;71.59
71465;BME280;59274;49.874;9.154;2022-09-03T09:31:11;100064.09;;;17.86;70.42
71465;BME280;59274;49.874;9.154;2022-09-03T09:33:39;100071.63;;;18.02;69.88
71465;BME280;59274;49.874;9.154;2022-09-03T09:36:07;100082.06;;;17.91;69.06
71465;BME280;59274;49.874;9.154;2022-09-03T09:38:37;100083.72;;;17.69;69.19
71465;BME280;59274;49.874;9.154;2022-09-03T09:43:42;100086.84;;;17.87;70.16
71465;BME280;59274;49.874;9.154;2022-09-03T09:46:12;100090.91;;;17.98;70.03
71465;BME280;59274;49.874;9.154;2022-09-03T09:48:47;100089.22;;;18.05;68.37
71465;BME280;59274;49.874;9.154;2022-09-03T09:51:58;100087.78;;;18.16;70.80
71465;BME280;59274;49.874;9.154;2022-09-03T09:54:17;100091.50;;;18.26;69.06
71465;BME280;59274;49.874;9.154;2022-09-03T09:56:45;100102.66;;;18.35;68.28
71465;BME280;59274;49.874;9.154;2022-09-03T09:59:13;100102.50;;;18.42;68.16
71465;BME280;59274;49.874;9.154;2022-09-03T10:01:43;100099.44;;;18.40;66.33
71465;BME280;59274;49.874;9.154;2022-09-03T10:04:14;100101.13;;;18.34;68.12
71465;BME280;59274;49.874;9.154;2022-09-03T10:06:53;100107.22;;;18.25;69.39
71465;BME280;59274;49.874;9.154;2022-09-03T10:09:28;100105.50;;;18.31;67.72
71465;BME280;59274;49.874;9.154;2022-09-03T10:14:48;100119.31;;;18.28;65.58
71465;BME280;59274;49.874;9.154;2022-09-03T10:17:29;100127.09;;;18.33;66.36
71465;BME280;59274;49.874;9.154;2022-09-03T10:23:02;100121.59;;;18.49;65.53
71465;BME280;59274;49.874;9.154;2022-09-03T10:28:15;100131.38;;;18.34;67.18
71465;BME280;59274;49.874;9.154;2022-09-03T10:33:29;100125.69;;;18.41;67.64
71465;BME280;59274;49.874;9.154;2022-09-03T10:36:13;100128.75;;;18.47;66.38
71465;BME280;59274;49.874;9.154;2022-09-03T10:38:46;100120.03;;;18.48;66.16
71465;BME280;59274;49.874;9.154;2022-09-03T10:41:27;100116.59;;;18.44;65.72
71465;BME280;59274;49.874;9.154;2022-09-03T10:49:36;100106.84;;;18.75;66.56
71465;BME280;59274;49.874;9.154;2022-09-03T11:00:09;100101.34;;;19.21;65.04
71465;BME280;59274;49.874;9.154;2022-09-03T11:08:20;100093.19;;;19.46;63.82
71465;BME280;59274;49.874;9.154;2022-09-03T11:10:53;100104.13;;;19.49;62.17
71465;BME280;59274;49.874;9.154;2022-09-03T11:13:54;100107.47;;;19.57;62.87
71465;BME280;59274;49.874;9.154;2022-09-03T11:16:16;100102.25;;;19.88;61.65
71465;BME280;59274;49.874;9.154;2022-09-03T11:18:56;100099.31;;;20.33;60.80
71465;BME280;59274;49.874;9.154;2022-09-03T11:21:25;100100.09;;;20.46;59.03
71465;BME280;59274;49.874;9.154;2022-09-03T11:24:12;100096.63;;;20.67;58.46
71465;BME280;59274;49.874;9.154;2022-09-03T11:26:41;100087.97;;;20.91;55.76
71465;BME280;59274;49.874;9.154;2022-09-03T11:32:00;100090.56;;;21.20;55.34
71465;BME280;59274;49.874;9.154;2022-09-03T11:34:30;100079.66;;;21.03;54.78
71465;BME280;59274;49.874;9.154;2022-09-03T11:37:26;100085.50;;;21.40;55.37
71465;BME280;59274;49.874;9.154;2022-09-03T11:42:28;100066.78;;;21.66;54.63
71465;BME280;59274;49.874;9.154;2022-09-03T11:44:59;100065.59;;;21.98;53.96
71465;BME280;59274;49.874;9.154;2022-09-03T11:47:39;100061.66;;;22.08;53.79
71465;BME280;59274;49.874;9.154;2022-09-03T11:52:48;100052.09;;;22.49;51.75
71465;BME280;59274;49.874;9.154;2022-09-03T11:55:30;100059.78;;;22.54;51.33
71465;BME280;59274;49.874;9.154;2022-09-03T11:57:56;100063.09;;;22.89;51.33
71465;BME280;59274;49.874;9.154;2022-09-03T12:00:23;100048.19;;;22.86;49.13
71465;BME280;59274;49.874;9.154;2022-09-03T12:03:00;100047.25;;;23.17;50.51
71465;BME280;59274;49.874;9.154;2022-09-03T12:19:06;100052.22;;;24.24;46.55
71465;BME280;59274;49.874;9.154;2022-09-03T12:21:38;100045.28;;;24.29;45.33
71465;BME280;59274;49.874;9.154;2022-09-03T12:24:06;100035.84;;;24.35;45.31
71465;BME280;59274;49.874;9.154;2022-09-03T12:26:40;100039.00;;;24.10;47.06
71465;BME280;59274;49.874;9.154;2022-09-03T12:29:19;100044.78;;;23.97;48.98
71465;BME280;59274;49.874;9.154;2022-09-03T12:31:47;100045.00;;;23.75;48.63
71465;BME280;59274;49.874;9.154;2022-09-03T12:34:17;100039.78;;;23.68;49.00
71465;BME280;59274;49.874;9.154;2022-09-03T12:36:50;100039.78;;;23.68;48.97
71465;BME280;59274;49.874;9.154;2022-09-03T12:39:25;100027.56;;;24.26;48.55
71465;BME280;59274;49.874;9.154;2022-09-03T12:41:58;100031.63;;;24.40;46.84
71465;BME280;59274;49.874;9.154;2022-09-03T12:44:31;100024.88;;;25.03;46.10
71465;BME280;59274;49.874;9.154;2022-09-03T12:49:38;100029.03;;;25.96;43.70
71465;BME280;59274;49.874;9.154;2022-09-03T12:52:09;100026.25;;;25.81;44.43
71465;BME280;59274;49.874;9.154;2022-09-03T12:54:42;100033.75;;;25.75;44.80
71465;BME280;59274;49.874;9.154;2022-09-03T12:57:09;100025.63;;;26.21;44.05
71465;BME280;59274;49.874;9.154;2022-09-03T12:59:35;100025.38;;;25.90;44.21
71465;BME280;59274;49.874;9.154;2022-09-03T13:02:11;100020.69;;;25.22;45.38
71465;BME280;59274;49.874;9.154;2022-09-03T13:04:38;100020.34;;;24.91;46.51
71465;BME280;59274;49.874;9.154;2022-09-03T13:07:10;100024.53;;;24.86;47.02
71465;BME280;59274;49.874;9.154;2022-09-03T13:09:38;100009.53;;;24.93;47.18
71465;BME280;59274;49.874;9.154;2022-09-03T13:12:06;100009.94;;;24.77;47.34
71465;BME280;59274;49.874;9.154;2022-09-03T13:14:42;100009.34;;;24.96;46.71
71465;BME280;59274;49.874;9.154;2022-09-03T13:20:14;100012.03;;;24.43;48.64
71465;BME280;59274;49.874;9.154;2022-09-03T13:29:28;100014.69;;;25.68;46.33
71465;BME280;59274;49.874;9.154;2022-09-03T13:31:41;100023.75;;;25.24;47.24
71465;BME280;59274;49.874;9.154;2022-09-03T13:37:35;100022.50;;;24.87;48.65
71465;BME280;59274;49.874;9.154;2022-09-03T13:40:13;100021.91;;;24.92;47.69
71465;BME280;59274;49.874;9.154;2022-09-03T13:42:44;100021.28;;;25.26;46.92
71465;BME280;59274;49.874;9.154;2022-09-03T13:48:01;100020.69;;;26.31;43.74
71465;BME280;59274;49.874;9.154;2022-09-03T13:53:41;100019.97;;;27.17;41.33
71465;BME280;59274;49.874;9.154;2022-09-03T13:59:00;100007.78;;;29.05;36.03
71465;BME280;59274;49.874;9.154;2022-09-03T14:04:39;100017.34;;;28.28;37.56
71465;BME280;59274;49.874;9.154;2022-09-03T14:07:18;100017.25;;;27.22;40.39
71465;BME280;59274;49.874;9.154;2022-09-03T14:10:03;100008.72;;;26.45;42.01
71465;BME280;59274;49.874;9.154;2022-09-03T14:20:01;100004.38;;;24.77;46.09
71465;BME280;59274;49.874;9.154;2022-09-03T14:25:11;99997.03;;;24.50;45.88
71465;BME280;59274;49.874;9.154;2022-09-03T14:27:38;99996.09;;;24.29;47.29
71465;BME280;59274;49.874;9.154;2022-09-03T14:30:16;99992.91;;;24.22;47.76
71465;BME280;59274;49.874;9.154;2022-09-03T14:35:57;99994.22;;;25.12;45.75
71465;BME280;59274;49.874;9.154;2022-09-03T14:41:03;99999.59;;;26.85;41.41
71465;BME280;59274;49.874;9.154;2022-09-03T14:54:49;99996.03;;;25.01;44.50
71465;BME280;59274;49.874;9.154;2022-09-03T14:57:37;99988.59;;;25.36;44.07
71465;BME280;59274;49.874;9.154;2022-09-03T15:11:00;99990.03;;;30.71;33.29
71465;BME280;59274;49.874;9.154;2022-09-03T15:13:32;99981.84;;;31.56;32.29
71465;BME280;59274;49.874;9.154;2022-09-03T15:16:11;99992.56;;;29.56;35.50
71465;BME280;59274;49.874;9.154;2022-09-03T15:30:18;99976.50;;;31.22;32.66
71465;BME280;59274;49.874;9.154;2022-09-03T15:33:00;99983.41;;;31.51;32.07
71465;BME280;59274;49.874;9.154;2022-09-03T15:35:51;99978.75;;;31.59;31.99
71465;BME280;59274;49.874;9.154;2022-09-03T15:41:33;99980.31;;;32.33;31.26
71465;BME280;59274;49.874;9.154;2022-09-03T15:44:00;99978.34;;;29.59;35.17
71465;BME280;59274;49.874;9.154;2022-09-03T15:46:33;99978.00;;;28.31;37.32
71465;BME280;59274;49.874;9.154;2022-09-03T15:49:00;99981.06;;;29.09;36.11
71465;BME280;59274;49.874;9.154;2022-09-03T15:51:39;99990.28;;;28.51;37.22
71465;BME280;59274;49.874;9.154;2022-09-03T15:54:22;99982.13;;;29.73;34.91
71465;BME280;59274;49.874;9.154;2022-09-03T15:59:38;99992.78;;;30.19;33.93
71465;BME280;59274;49.874;9.154;2022-09-03T16:02:06;99986.66;;;30.90;33.33
71465;BME280;59274;49.874;9.154;2022-09-03T16:12:57;99985.81;;;28.22;37.43
71465;BME280;59274;49.874;9.154;2022-09-03T16:15:28;99998.34;;;27.06;40.75
71465;BME280;59274;49.874;9.154;2022-09-03T16:20:35;99984.75;;;25.48;44.63
71465;BME280;59274;49.874;9.154;2022-09-03T16:23:20;99987.59;;;25.54;44.91
71465;BME280;59274;49.874;9.154;2022-09-03T16:25:56;99989.72;;;25.15;45.76
71465;BME280;59274;49.874;9.154;2022-09-03T16:31:01;99989.97;;;24.64;47.33
71465;BME280;59274;49.874;9.154;2022-09-03T16:34:32;99994.41;;;24.46;48.04
71465;BME280;59274;49.874;9.154;2022-09-03T16:58:54;99989.81;;;24.19;48.35
71465;BME280;59274;49.874;9.154;2022-09-03T17:04:25;99992.19;;;24.36;48.31
71465;BME280;59274;49.874;9.154;2022-09-03T17:12:40;100007.03;;;23.39;50.92
71465;BME280;59274;49.874;9.154;2022-09-03T17:15:29;100000.16;;;23.08;51.56
71465;BME280;59274;49.874;9.154;2022-09-03T17:18:20;100001.69;;;22.99;51.92
71465;BME280;59274;49.874;9.154;2022-09-03T17:21:04;100013.41;;;22.94;53.27
71465;BME280;59274;49.874;9.154;2022-09-03T17:24:02;100009.84;;;22.76;54.32
71465;BME280;59274;49.874;9.154;2022-09-03T17:29:44;100019.19;;;22.60;54.32
71465;BME280;59274;49.874;9.154;2022-09-03T17:32:40;100021.97;;;22.51;54.06
71465;BME280;59274;49.874;9.154;2022-09-03T17:35:19;100019.34;;;22.56;53.95
71465;BME280;59274;49.874;9.154;2022-09-03T17:43:31;100022.69;;;22.33;54.58
71465;BME280;59274;49.874;9.154;2022-09-03T17:46:42;100023.78;;;22.36;54.61
71465;BME280;59274;49.874;9.154;2022-09-03T17:49:20;100022.06;;;22.29;54.92
71465;BME280;59274;49.874;9.154;2022-09-03T17:52:00;100025.28;;;22.27;55.00